Time;durP1;ratioP1;P1;durP2;ratioP2;P2;SDS_P1;SDS_P2;PMS_P1;PMS_P2;Temp;Humidity;BMP_temperature;BMP_pressure;BME280_temperature;BME280_humidity;BME280_pressure;Samples;Min_cycle;Max_cycle;Signal;HPM_P1;HPM_P2
2023/09/14 00:01:56;;;;;;;6.43;2.38;;;;;;;17.20;70.54;102419.81;5029989;28;20033;-76
2023/09/14 00:04:21;;;;;;;6.47;2.75;;;;;;;17.14;70.83;102426.78;5029662;28;20033;-74
2023/09/14 00:06:48;;;;;;;5.07;2.80;;;;;;;17.12;70.91;102425.88;5030299;28;20091;-74
2023/09/14 00:09:16;;;;;;;7.90;3.08;;;;;;;17.10;71.33;102433.75;5028334;28;20038;-74
2023/09/14 00:11:41;;;;;;;7.75;3.08;;;;;;;17.08;71.21;102438.09;5028826;28;20034;-74
2023/09/14 00:14:10;;;;;;;5.57;2.60;;;;;;;17.13;70.77;102435.56;5029477;28;20091;-74
2023/09/14 00:16:35;;;;;;;7.80;2.90;;;;;;;17.09;70.90;102433.72;5030143;28;20095;-76
2023/09/14 00:19:00;;;;;;;4.40;2.70;;;;;;;17.09;70.72;102434.63;5029815;28;20035;-74
2023/09/14 00:21:26;;;;;;;6.15;2.80;;;;;;;17.04;71.22;102439.84;5029355;28;20048;-74
2023/09/14 00:23:54;;;;;;;5.40;2.75;;;;;;;17.01;71.16;102438.94;5029708;28;20037;-74
2023/09/14 00:26:25;;;;;;;7.68;2.90;;;;;;;16.99;71.50;102432.75;5029484;28;20395;-76
2023/09/14 00:28:51;;;;;;;6.03;2.80;;;;;;;16.99;71.67;102435.38;5029695;28;20033;-74
2023/09/14 00:31:16;;;;;;;5.45;2.70;;;;;;;16.96;71.69;102427.44;5028676;28;20113;-74
2023/09/14 00:33:41;;;;;;;6.53;2.83;;;;;;;16.98;71.59;102431.88;5029391;28;20064;-74
2023/09/14 00:36:16;;;;;;;8.27;2.53;;;;;;;17.00;71.36;102424.88;5029756;28;20040;-74
2023/09/14 00:38:44;;;;;;;7.13;3.13;;;;;;;17.10;71.05;102428.47;5029531;28;20076;-74
2023/09/14 00:41:12;;;;;;;6.30;2.72;;;;;;;16.99;71.28;102433.63;5028991;28;20594;-74
2023/09/14 00:43:40;;;;;;;6.55;2.72;;;;;;;16.98;71.45;102428.34;5030001;28;20041;-74
2023/09/14 00:46:12;;;;;;;7.15;3.08;;;;;;;16.96;71.53;102423.03;5029134;28;20064;-76
2023/09/14 00:48:37;;;;;;;6.82;2.67;;;;;;;16.94;71.91;102426.53;5029469;28;20033;-74
2023/09/14 00:51:03;;;;;;;7.00;2.80;;;;;;;16.99;71.23;102424.84;5029411;28;20442;-74
2023/09/14 00:53:29;;;;;;;4.55;2.55;;;;;;;16.96;71.51;102420.41;5028955;28;20038;-74
2023/09/14 00:55:57;;;;;;;5.40;2.90;;;;;;;16.96;71.38;102430.06;5029055;28;20030;-74
2023/09/14 00:58:23;;;;;;;7.32;2.90;;;;;;;16.91;71.28;102422.13;5028970;28;20026;-74
2023/09/14 01:00:48;;;;;;;8.23;2.92;;;;;;;16.89;71.44;102418.59;5029623;28;20040;-74
2023/09/14 01:03:14;;;;;;;4.22;2.67;;;;;;;16.93;71.50;102423.03;5029015;28;20037;-74
2023/09/14 01:05:55;;;;;;;6.53;2.70;;;;;;;16.85;71.99;102419.41;5030111;28;20068;-74
2023/09/14 01:08:20;;;;;;;4.38;2.70;;;;;;;16.86;71.85;102420.28;5031914;28;20033;-74
2023/09/14 01:10:48;;;;;;;5.43;2.40;;;;;;;16.84;72.36;102420.25;5031599;28;20030;-74
2023/09/14 01:13:32;;;;;;;5.43;2.80;;;;;;;16.82;72.36;102424.66;5030718;28;20033;-74
2023/09/14 01:16:25;;;;;;;5.93;2.78;;;;;;;16.82;72.38;102427.28;5037548;28;20124;-74
2023/09/14 01:19:09;;;;;;;6.20;2.70;;;;;;;16.87;72.00;102430.84;5032890;28;20036;-76
2023/09/14 01:21:37;;;;;;;4.60;2.35;;;;;;;16.85;71.83;102427.31;5032488;28;20463;-74
2023/09/14 01:24:38;;;;;;;5.80;2.75;;;;;;;16.79;72.17;102439.50;5032834;28;20060;-76
2023/09/14 01:27:07;;;;;;;5.32;2.80;;;;;;;16.78;72.44;102430.72;5024240;28;20051;-74
2023/09/14 01:29:36;;;;;;;5.22;2.60;;;;;;;16.84;71.84;102425.53;5032135;28;20103;-74
2023/09/14 01:32:01;;;;;;;6.88;2.70;;;;;;;16.87;71.85;102422.06;5031352;28;20135;-74
2023/09/14 01:34:27;;;;;;;6.10;2.65;;;;;;;16.83;72.16;102417.63;5032276;28;20033;-75
2023/09/14 01:36:58;;;;;;;4.68;2.50;;;;;;;16.85;72.58;102423.78;5032999;28;20033;-74
2023/09/14 01:39:25;;;;;;;6.75;2.55;;;;;;;16.84;72.31;102411.47;5031743;28;20036;-75
2023/09/14 01:41:57;;;;;;;4.63;2.80;;;;;;;16.86;72.72;102415.91;5032428;28;20034;-74
2023/09/14 01:44:26;;;;;;;6.70;2.88;;;;;;;16.86;73.14;102415.91;5031706;28;20553;-75
2023/09/14 01:46:53;;;;;;;4.70;2.67;;;;;;;16.90;73.22;102420.34;5032319;28;20461;-75
2023/09/14 01:49:18;;;;;;;7.47;3.00;;;;;;;16.98;73.13;102418.69;5029928;28;20113;-74
2023/09/14 01:51:43;;;;;;;6.40;2.75;;;;;;;16.98;73.59;102420.44;5032417;28;20128;-74
2023/09/14 01:54:12;;;;;;;5.20;2.70;;;;;;;17.10;73.38;102414.41;5031542;28;20033;-75
2023/09/14 01:56:37;;;;;;;4.80;2.70;;;;;;;17.14;73.14;102416.25;5033780;28;20049;-74
2023/09/14 01:59:09;;;;;;;5.18;2.65;;;;;;;17.24;72.60;102421.63;5033104;28;20341;-75
2023/09/14 02:01:34;;;;;;;4.43;2.60;;;;;;;17.17;72.79;102411.00;5030408;28;20033;-75
2023/09/14 02:03:59;;;;;;;6.20;2.88;;;;;;;17.13;72.86;102410.09;5032044;28;20177;-74
2023/09/14 02:06:27;;;;;;;6.38;3.03;;;;;;;17.10;72.97;102415.31;5031559;28;20053;-76
2023/09/14 02:08:53;;;;;;;5.38;2.90;;;;;;;17.17;72.93;102413.63;5032312;28;20108;-76
2023/09/14 02:11:21;;;;;;;6.70;2.97;;;;;;;17.12;72.82;102407.44;5029495;28;20133;-76
2023/09/14 02:13:46;;;;;;;7.43;2.80;;;;;;;17.11;73.14;102403.91;5032217;28;20458;-76
2023/09/14 02:16:16;;;;;;;6.22;2.90;;;;;;;17.15;72.60;102404.81;5031466;28;20134;-73
2023/09/14 02:18:50;;;;;;;7.90;2.85;;;;;;;17.12;72.59;102400.41;5031104;28;20056;-76
2023/09/14 02:21:21;;;;;;;6.57;2.78;;;;;;;17.10;72.45;102398.59;5031200;28;20585;-74
2023/09/14 02:23:47;;;;;;;7.97;3.33;;;;;;;17.08;72.25;102398.59;5031785;28;20041;-76
2023/09/14 02:26:12;;;;;;;5.50;2.92;;;;;;;17.04;72.19;102394.16;5030846;28;20398;-74
2023/09/14 02:28:37;;;;;;;5.13;2.75;;;;;;;16.96;72.27;102399.34;5032060;28;20153;-74
2023/09/14 02:31:12;;;;;;;4.47;2.70;;;;;;;16.93;72.17;102395.78;5031368;28;20021;-74
2023/09/14 02:33:38;;;;;;;4.75;2.70;;;;;;;16.91;72.11;102395.78;5032527;28;20399;-76
2023/09/14 02:36:03;;;;;;;5.15;2.72;;;;;;;16.82;72.49;102387.78;5031173;28;20033;-76
2023/09/14 02:38:28;;;;;;;6.05;2.95;;;;;;;16.86;72.23;102386.03;5031097;28;20552;-74
2023/09/14 02:40:57;;;;;;;5.28;2.70;;;;;;;16.81;72.17;102391.28;5031363;28;20056;-76
2023/09/14 02:43:22;;;;;;;6.75;3.03;;;;;;;16.72;72.88;102390.25;5030903;28;20034;-74
2023/09/14 02:45:47;;;;;;;6.70;3.20;;;;;;;16.70;72.93;102395.53;5031522;28;20533;-76
2023/09/14 02:48:13;;;;;;;5.22;3.13;;;;;;;16.75;72.63;102391.19;5030905;28;20034;-74
2023/09/14 02:50:38;;;;;;;5.43;3.00;;;;;;;16.72;72.53;102388.50;5030884;28;20557;-74
2023/09/14 02:53:03;;;;;;;6.65;3.13;;;;;;;16.70;72.67;102384.13;5029555;28;20503;-74
2023/09/14 02:55:29;;;;;;;6.75;3.38;;;;;;;16.67;72.81;102387.56;5030825;28;20029;-74
2023/09/14 02:57:57;;;;;;;5.63;2.90;;;;;;;16.69;72.67;102385.84;5031538;28;20037;-74
2023/09/14 03:00:25;;;;;;;6.68;3.30;;;;;;;16.66;72.93;102385.81;5030514;28;20090;-74
2023/09/14 03:02:53;;;;;;;8.95;3.47;;;;;;;16.67;72.43;102384.94;5031681;28;20057;-74
2023/09/14 03:05:22;;;;;;;8.23;3.40;;;;;;;16.67;72.55;102378.78;5030602;28;20036;-76
2023/09/14 03:07:48;;;;;;;5.85;3.25;;;;;;;16.63;72.84;102372.63;5031077;28;20576;-74
2023/09/14 03:10:16;;;;;;;7.18;3.15;;;;;;;16.65;72.64;102380.53;5030132;28;20549;-74
2023/09/14 03:12:42;;;;;;;7.90;3.35;;;;;;;16.61;72.68;102372.59;5030907;28;20037;-74
2023/09/14 03:15:07;;;;;;;4.28;2.70;;;;;;;16.67;72.44;102374.41;5030313;28;20037;-74
2023/09/14 03:17:36;;;;;;;6.95;2.95;;;;;;;16.61;72.50;102372.59;5030525;28;20407;-74
2023/09/14 03:20:01;;;;;;;9.57;3.08;;;;;;;16.58;72.35;102369.91;5030599;28;20034;-76
2023/09/14 03:22:26;;;;;;;6.55;2.65;;;;;;;16.56;72.67;102374.25;5029968;28;20044;-76
2023/09/14 03:24:57;;;;;;;6.00;2.97;;;;;;;16.57;72.87;102372.50;5030574;28;20030;-75
2023/09/14 03:27:23;;;;;;;8.90;3.00;;;;;;;16.51;72.87;102370.69;5029860;28;20126;-74
2023/09/14 03:29:48;;;;;;;5.85;2.80;;;;;;;16.51;72.89;102377.69;5029366;28;20110;-77
2023/09/14 03:32:13;;;;;;;7.72;2.58;;;;;;;16.49;73.02;102374.16;5029248;28;20661;-74
2023/09/14 03:34:39;;;;;;;7.35;3.00;;;;;;;16.50;72.93;102370.66;5030362;28;20470;-74
2023/09/14 03:37:04;;;;;;;7.05;2.80;;;;;;;16.50;72.93;102368.03;5030088;28;20041;-74
2023/09/14 03:39:30;;;;;;;5.15;2.55;;;;;;;16.50;73.20;102374.19;5029849;28;20045;-74
2023/09/14 03:41:55;;;;;;;6.72;2.65;;;;;;;16.52;72.71;102372.47;5030209;28;20033;-74
2023/09/14 03:44:23;;;;;;;6.82;2.67;;;;;;;16.52;73.15;102371.56;5028117;28;20041;-74
2023/09/14 03:46:51;;;;;;;4.57;2.40;;;;;;;16.54;73.14;102370.69;5030013;28;20041;-74
2023/09/14 03:49:17;;;;;;;4.25;2.40;;;;;;;16.55;73.11;102372.47;5029691;28;20041;-74
2023/09/14 03:51:42;;;;;;;4.20;2.17;;;;;;;16.57;72.92;102369.88;5029989;28;20395;-74
2023/09/14 03:54:08;;;;;;;5.32;1.90;;;;;;;16.59;73.00;102370.75;5029444;28;20041;-75
2023/09/14 03:56:37;;;;;;;7.35;2.30;;;;;;;16.65;72.81;102375.28;5030096;28;20469;-74
2023/09/14 03:59:03;;;;;;;7.28;2.15;;;;;;;16.69;72.99;102370.06;5030133;28;20040;-74
2023/09/14 04:01:34;;;;;;;5.65;2.30;;;;;;;16.71;73.26;102370.94;5029344;28;20037;-74
2023/09/14 04:04:00;;;;;;;6.18;2.28;;;;;;;16.74;73.22;102372.72;5030140;28;20384;-74
2023/09/14 04:06:28;;;;;;;5.90;2.50;;;;;;;16.76;73.28;102371.91;5029954;28;20048;-74
2023/09/14 04:08:56;;;;;;;8.88;2.50;;;;;;;16.81;73.30;102371.94;5030681;28;20092;-74
2023/09/14 04:11:24;;;;;;;5.35;2.30;;;;;;;16.83;73.42;102367.59;5029164;28;20029;-74
2023/09/14 04:13:50;;;;;;;5.47;2.33;;;;;;;16.83;73.37;102357.91;5030405;28;20041;-73
2023/09/14 04:16:28;;;;;;;5.38;2.30;;;;;;;16.83;73.27;102365.81;5027789;28;20030;-73
2023/09/14 04:18:53;;;;;;;7.43;2.35;;;;;;;16.85;73.39;102363.19;5029652;28;20037;-74
2023/09/14 04:21:21;;;;;;;7.88;2.60;;;;;;;16.86;73.24;102359.72;5029106;28;20442;-74
2023/09/14 04:23:46;;;;;;;5.53;2.30;;;;;;;16.84;73.57;102359.69;5029563;28;20083;-73
2023/09/14 04:26:12;;;;;;;5.95;2.47;;;;;;;16.88;73.42;102363.25;5028785;28;20042;-73
2023/09/14 04:28:37;;;;;;;5.93;2.28;;;;;;;16.91;73.35;102365.91;5029864;28;20056;-74
2023/09/14 04:31:04;;;;;;;4.93;2.42;;;;;;;16.91;73.18;102365.91;5029278;28;20044;-73
2023/09/14 04:33:31;;;;;;;7.30;2.45;;;;;;;16.92;73.49;102368.56;5029140;28;20774;-73
2023/09/14 04:36:02;;;;;;;6.97;2.63;;;;;;;16.95;73.41;102371.25;5029499;28;20041;-73
2023/09/14 04:38:30;;;;;;;11.38;3.42;;;;;;;16.92;73.99;102376.47;5029192;28;20045;-73
2023/09/14 04:41:02;;;;;;;5.97;2.45;;;;;;;16.99;73.71;102369.53;5030693;28;20519;-73
2023/09/14 04:43:29;;;;;;;5.93;2.50;;;;;;;17.00;73.80;102376.56;5032972;28;20038;-73
2023/09/14 04:46:07;;;;;;;6.38;2.45;;;;;;;17.07;73.75;102377.50;5033576;28;20061;-74
2023/09/14 04:48:32;;;;;;;6.13;2.53;;;;;;;17.11;72.82;102380.19;5033105;28;20133;-73
2023/09/14 04:50:58;;;;;;;7.70;2.42;;;;;;;16.95;74.04;102375.63;5033286;28;20116;-73
2023/09/14 04:53:25;;;;;;;7.30;2.50;;;;;;;17.08;73.77;102377.50;5031167;28;20460;-73
2023/09/14 04:55:53;;;;;;;8.55;2.70;;;;;;;17.04;73.95;102378.34;5033384;28;20053;-73
2023/09/14 04:58:22;;;;;;;7.30;2.63;;;;;;;17.13;73.49;102380.22;5032726;28;20038;-73
2023/09/14 05:00:50;;;;;;;5.60;2.38;;;;;;;17.16;73.18;102380.22;5027933;28;20033;-74
2023/09/14 05:03:16;;;;;;;4.85;2.20;;;;;;;16.98;73.46;102373.91;5043250;28;20049;-74
2023/09/14 05:05:42;;;;;;;7.75;2.53;;;;;;;16.94;74.07;102380.00;5033910;28;20033;-74
2023/09/14 05:08:08;;;;;;;8.15;2.42;;;;;;;17.02;73.89;102378.31;5033019;28;20386;-74
2023/09/14 05:10:33;;;;;;;8.32;2.80;;;;;;;16.79;75.15;102377.19;5033274;28;20376;-73
2023/09/14 05:13:04;;;;;;;7.97;2.85;;;;;;;16.94;74.62;102377.38;5033103;28;20124;-73
2023/09/14 05:15:33;;;;;;;7.72;2.95;;;;;;;17.11;73.83;102374.03;5033662;28;20029;-75
2023/09/14 05:17:58;;;;;;;6.93;2.55;;;;;;;17.19;73.46;102377.63;5035841;28;20037;-76
2023/09/14 05:20:29;;;;;;;7.60;2.70;;;;;;;17.12;73.53;102374.06;5036043;28;20037;-73
2023/09/14 05:22:55;;;;;;;5.75;2.90;;;;;;;17.13;73.62;102375.81;5035788;28;20033;-73
2023/09/14 05:25:20;;;;;;;7.35;2.92;;;;;;;16.99;74.41;102369.53;5034180;28;20482;-74
2023/09/14 05:27:46;;;;;;;6.75;2.80;;;;;;;17.25;73.62;102375.06;5033424;28;20065;-73
2023/09/14 05:30:14;;;;;;;7.47;2.38;;;;;;;17.19;73.86;102373.25;5032250;28;20053;-73
2023/09/14 05:32:49;;;;;;;6.97;2.83;;;;;;;17.16;74.14;102377.59;5033595;28;20037;-74
2023/09/14 05:35:15;;;;;;;6.43;2.63;;;;;;;16.90;74.79;102372.03;5034625;28;20037;-74
2023/09/14 05:37:44;;;;;;;6.85;2.88;;;;;;;17.14;74.36;102376.72;5035079;28;20044;-73
2023/09/14 05:40:15;;;;;;;7.97;2.75;;;;;;;17.16;74.38;102378.47;5032779;28;20029;-74
2023/09/14 05:42:41;;;;;;;6.38;2.67;;;;;;;17.17;74.46;102380.25;5033463;28;20037;-73
2023/09/14 05:45:08;;;;;;;7.30;2.90;;;;;;;17.09;74.64;102381.91;5032330;28;20136;-74
2023/09/14 05:47:37;;;;;;;7.15;2.78;;;;;;;17.25;74.18;102383.84;5031885;28;20037;-74
2023/09/14 05:50:07;;;;;;;10.05;2.95;;;;;;;17.28;74.23;102375.97;5031885;28;20032;-73
2023/09/14 05:52:33;;;;;;;5.68;2.70;;;;;;;17.49;73.47;102385.84;5030657;28;20037;-73
2023/09/14 05:55:03;;;;;;;9.15;2.88;;;;;;;17.62;73.31;102387.75;5031901;28;20494;-73
2023/09/14 05:57:29;;;;;;;6.85;2.70;;;;;;;17.36;73.67;102386.59;5031414;28;20042;-73
2023/09/14 05:59:55;;;;;;;7.32;2.90;;;;;;;17.50;73.95;102392.88;5032064;28;20037;-73
2023/09/14 06:02:20;;;;;;;10.35;3.00;;;;;;;17.91;72.27;102397.63;5031622;28;20519;-74
2023/09/14 06:04:47;;;;;;;6.95;2.70;;;;;;;17.83;72.62;102392.28;5032377;28;20514;-73
2023/09/14 06:07:15;;;;;;;8.35;3.00;;;;;;;17.76;73.05;102395.75;5031604;28;20503;-73
2023/09/14 06:09:40;;;;;;;9.32;2.90;;;;;;;18.02;71.78;102402.13;5032102;28;20041;-74
2023/09/14 06:12:06;;;;;;;6.70;2.97;;;;;;;18.31;71.21;102401.41;5029452;28;20037;-74
2023/09/14 06:14:33;;;;;;;7.50;2.92;;;;;;;18.21;71.56;102404.00;5046117;28;20049;-74
2023/09/14 06:16:58;;;;;;;6.68;3.05;;;;;;;18.20;71.59;102396.97;5052417;28;20042;-74
2023/09/14 06:19:24;;;;;;;8.10;3.00;;;;;;;18.13;71.73;102400.44;5043958;28;20042;-74
2023/09/14 06:22:01;;;;;;;8.75;3.05;;;;;;;18.14;72.03;102393.41;5047810;28;20033;-75
2023/09/14 06:24:29;;;;;;;7.55;2.97;;;;;;;18.39;71.32;102397.94;5031734;28;20045;-74
2023/09/14 06:26:55;;;;;;;9.68;3.05;;;;;;;18.46;71.37;102404.16;5031406;28;20129;-74
2023/09/14 06:29:26;;;;;;;5.88;3.10;;;;;;;18.96;70.52;102400.00;5031005;28;20120;-74
2023/09/14 06:31:51;;;;;;;9.15;3.22;;;;;;;19.21;69.12;102400.06;5031369;28;20535;-74
2023/09/14 06:34:17;;;;;;;8.15;3.45;;;;;;;19.45;67.75;102400.09;5030888;28;20037;-75
2023/09/14 06:36:46;;;;;;;10.00;3.42;;;;;;;19.90;66.13;102393.94;5034909;28;20394;-72
2023/09/14 06:39:12;;;;;;;8.75;3.90;;;;;;;20.47;63.85;102390.31;5030767;28;20033;-72
2023/09/14 06:41:43;;;;;;;8.10;3.78;;;;;;;20.64;62.94;102400.84;5030954;28;20091;-75
2023/09/14 06:44:09;;;;;;;10.57;3.95;;;;;;;21.25;61.00;102397.91;5030624;28;20026;-73
2023/09/14 06:46:34;;;;;;;8.45;3.80;;;;;;;21.53;59.71;102401.28;5031111;28;20494;-74
2023/09/14 06:48:59;;;;;;;8.02;3.92;;;;;;;21.72;58.72;102397.53;5031034;28;20120;-74
2023/09/14 06:51:28;;;;;;;10.90;4.38;;;;;;;21.72;57.89;102387.81;5030462;28;20103;-74
2023/09/14 06:53:54;;;;;;;8.90;4.00;;;;;;;21.69;58.49;102394.94;5031492;28;20091;-73
2023/09/14 06:56:22;;;;;;;9.57;4.13;;;;;;;21.99;57.73;102393.81;5030863;28;20495;-74
2023/09/14 06:58:50;;;;;;;7.45;3.65;;;;;;;22.00;57.88;102396.44;5030879;28;20442;-74
2023/09/14 07:01:16;;;;;;;8.73;4.07;;;;;;;21.94;57.56;102392.94;5030017;28;20040;-74
2023/09/14 07:03:41;;;;;;;10.00;4.13;;;;;;;21.80;57.84;102393.06;5030337;28;20041;-74
2023/09/14 07:06:06;;;;;;;11.88;4.60;;;;;;;21.89;57.94;102389.44;5030127;28;20518;-73
2023/09/14 07:08:31;;;;;;;8.18;4.30;;;;;;;22.57;56.91;102384.28;5030744;28;20702;-73
2023/09/14 07:10:58;;;;;;;12.57;4.38;;;;;;;23.45;53.23;102390.16;5029246;28;20495;-74
2023/09/14 07:13:24;;;;;;;9.90;3.95;;;;;;;24.02;51.83;102376.81;5030447;28;20057;-73
2023/09/14 07:15:49;;;;;;;12.23;4.47;;;;;;;24.39;50.68;102374.34;5029091;28;20069;-74
2023/09/14 07:18:26;;;;;;;6.75;3.75;;;;;;;25.04;48.71;102372.94;5029867;28;20047;-75
2023/09/14 07:20:59;;;;;;;9.50;4.30;;;;;;;25.15;45.80;102370.91;5030684;28;20120;-74
2023/09/14 07:23:25;;;;;;;8.47;4.37;;;;;;;24.42;49.02;102379.59;5030037;28;20033;-74
2023/09/14 07:25:50;;;;;;;11.52;4.90;;;;;;;24.05;50.07;102374.94;5030532;28;20029;-75
2023/09/14 07:28:18;;;;;;;8.88;4.47;;;;;;;24.39;50.11;102379.66;5029688;28;20722;-75
2023/09/14 07:30:44;;;;;;;11.50;4.03;;;;;;;24.59;48.69;102391.66;5030180;28;20461;-72
2023/09/14 07:33:13;;;;;;;13.95;4.85;;;;;;;24.55;49.01;102395.31;5029519;28;20164;-71
2023/09/14 07:35:59;;;;;;;10.60;4.68;;;;;;;24.03;51.04;102395.41;5030483;28;20048;-74
2023/09/14 07:38:24;;;;;;;13.88;4.88;;;;;;;22.91;53.19;102406.06;5029441;28;20029;-73
2023/09/14 07:40:59;;;;;;;11.13;4.57;;;;;;;22.96;53.36;102413.97;5030222;28;20439;-73
2023/09/14 07:43:27;;;;;;;9.57;4.88;;;;;;;22.82;54.03;102411.47;5028359;28;20033;-72
2023/09/14 07:45:55;;;;;;;13.18;5.30;;;;;;;22.54;54.30;102408.25;5030102;28;20045;-72
2023/09/14 07:48:21;;;;;;;11.38;4.80;;;;;;;21.96;55.96;102413.28;5029467;28;20159;-72
2023/09/14 07:50:47;;;;;;;11.38;5.03;;;;;;;22.01;57.91;102407.97;5029344;28;20034;-72
2023/09/14 07:53:12;;;;;;;10.88;4.93;;;;;;;21.90;57.74;102413.31;5029375;28;20048;-71
2023/09/14 07:55:52;;;;;;;10.77;4.80;;;;;;;22.18;56.78;102412.22;5029790;28;20033;-72
2023/09/14 07:58:20;;;;;;;13.98;5.20;;;;;;;21.73;58.10;102409.94;5029742;28;20037;-72
2023/09/14 08:00:49;;;;;;;9.65;4.88;;;;;;;22.00;58.56;102408.84;5029676;28;20502;-72
2023/09/14 08:03:14;;;;;;;12.60;4.53;;;;;;;22.08;58.33;102412.31;5029565;28;20553;-74
2023/09/14 08:05:41;;;;;;;14.77;4.65;;;;;;;22.32;57.79;102416.50;5029977;28;20129;-73
2023/09/14 08:08:08;;;;;;;7.32;4.35;;;;;;;22.31;57.47;102412.97;5027323;28;20088;-72
2023/09/14 08:10:36;;;;;;;12.13;5.18;;;;;;;22.15;58.11;102411.34;5029781;28;20457;-72
2023/09/14 08:13:04;;;;;;;13.05;4.95;;;;;;;22.22;58.02;102416.59;5030080;28;20064;-73
2023/09/14 08:15:33;;;;;;;12.85;4.85;;;;;;;22.28;57.66;102415.63;5029360;28;20057;-72
2023/09/14 08:18:01;;;;;;;10.55;4.82;;;;;;;22.38;58.09;102412.00;5030956;28;20112;-72
2023/09/14 08:20:27;;;;;;;10.45;4.88;;;;;;;21.99;58.63;102415.94;5037022;28;20041;-71
2023/09/14 08:23:02;;;;;;;8.98;4.35;;;;;;;22.23;57.99;102412.16;5032618;28;20033;-72
2023/09/14 08:25:27;;;;;;;10.27;4.78;;;;;;;22.30;57.72;102411.19;5031440;28;20182;-72
2023/09/14 08:27:59;;;;;;;11.82;5.10;;;;;;;22.30;58.49;102407.66;5031196;28;20124;-73
2023/09/14 08:30:27;;;;;;;12.60;4.78;;;;;;;21.99;59.13;102418.59;5030426;28;20049;-73
2023/09/14 08:32:58;;;;;;;9.20;4.45;;;;;;;22.15;59.16;102411.34;5030668;28;20037;-73
2023/09/14 08:35:28;;;;;;;8.55;4.40;;;;;;;22.38;58.42;102403.16;5030266;28;20045;-72
2023/09/14 08:37:54;;;;;;;10.35;4.68;;;;;;;22.28;57.82;102410.31;5030765;28;20021;-74
2023/09/14 08:40:21;;;;;;;9.00;4.47;;;;;;;22.41;57.85;102403.09;5028642;28;20483;-72
2023/09/14 08:42:51;;;;;;;10.93;4.40;;;;;;;22.50;57.63;102406.53;5029828;28;20057;-73
2023/09/14 08:45:37;;;;;;;10.75;4.55;;;;;;;22.04;59.03;102410.56;5028947;28;20112;-72
2023/09/14 08:48:03;;;;;;;10.45;4.82;;;;;;;22.05;59.30;102405.25;5029379;28;20037;-72
2023/09/14 08:50:39;;;;;;;8.07;4.03;;;;;;;22.44;57.95;102411.06;5029213;28;20034;-72
2023/09/14 08:53:16;;;;;;;13.13;4.20;;;;;;;22.24;57.59;102414.81;5029683;28;20262;-71
2023/09/14 08:55:43;;;;;;;13.95;4.15;;;;;;;22.24;57.99;102408.59;5029996;28;20116;-73
2023/09/14 08:58:10;;;;;;;8.30;4.43;;;;;;;22.25;57.69;102413.03;5028984;28;20065;-73
2023/09/14 09:00:43;;;;;;;8.80;4.40;;;;;;;22.00;57.91;102416.81;5029088;28;20375;-73
2023/09/14 09:03:12;;;;;;;9.98;4.43;;;;;;;22.10;58.39;102413.16;5029480;28;20580;-72
2023/09/14 09:05:38;;;;;;;9.93;4.20;;;;;;;22.19;59.04;102413.97;5027699;28;20164;-72
2023/09/14 09:08:06;;;;;;;6.97;3.80;;;;;;;22.22;57.85;102415.69;5029681;28;20041;-71
2023/09/14 09:10:38;;;;;;;10.02;3.85;;;;;;;22.11;58.70;102409.63;5027521;28;20040;-72
2023/09/14 09:13:04;;;;;;;7.90;3.80;;;;;;;22.55;58.41;102403.81;5029450;28;20033;-73
2023/09/14 09:15:32;;;;;;;7.38;3.60;;;;;;;22.62;56.62;102403.75;5029240;28;20034;-72
2023/09/14 09:18:11;;;;;;;10.95;3.72;;;;;;;22.46;58.00;102401.25;5029362;28;20041;-72
2023/09/14 09:20:41;;;;;;;9.75;3.97;;;;;;;22.20;58.07;102405.06;5027239;28;20036;-72
2023/09/14 09:23:08;;;;;;;9.68;4.10;;;;;;;22.08;59.01;102401.69;5029054;28;20573;-74
2023/09/14 09:25:52;;;;;;;10.68;3.83;;;;;;;22.32;57.54;102409.41;5029526;28;20522;-74
2023/09/14 09:28:30;;;;;;;10.93;4.30;;;;;;;22.69;56.06;102404.50;5032885;28;20529;-73
2023/09/14 09:30:59;;;;;;;9.98;4.10;;;;;;;22.77;55.72;102407.13;5033543;28;20033;-72
2023/09/14 09:33:34;;;;;;;10.60;4.03;;;;;;;22.39;56.47;102404.88;5032522;28;20125;-72
2023/09/14 09:36:17;;;;;;;12.73;4.10;;;;;;;22.90;54.71;102401.63;5032714;28;20056;-71
2023/09/14 09:38:43;;;;;;;8.48;4.18;;;;;;;22.80;55.13;102402.66;5032324;28;20037;-72
2023/09/14 09:41:12;;;;;;;7.00;3.42;;;;;;;23.38;55.67;102407.13;5031822;28;20129;-72
2023/09/14 09:43:43;;;;;;;10.80;4.50;;;;;;;23.26;53.09;102407.31;5031993;28;20041;-72
2023/09/14 09:46:15;;;;;;;8.55;4.07;;;;;;;23.40;54.17;102400.00;5031773;28;20049;-71
2023/09/14 09:48:41;;;;;;;9.43;4.20;;;;;;;23.40;53.90;102406.22;5032028;28;20041;-71
2023/09/14 09:51:07;;;;;;;8.00;4.13;;;;;;;22.79;53.70;102405.34;5030106;28;20525;-72
2023/09/14 09:53:36;;;;;;;9.68;4.50;;;;;;;23.13;53.67;102395.09;5032257;28;20038;-71
2023/09/14 09:56:18;;;;;;;6.90;4.07;;;;;;;23.77;51.46;102397.66;5032405;28;20040;-71
2023/09/14 09:58:48;;;;;;;11.00;4.03;;;;;;;24.07;50.81;102399.78;5032136;28;20095;-71
2023/09/14 10:01:20;;;;;;;8.27;3.53;;;;;;;24.14;51.74;102392.56;5031282;28;20092;-74
2023/09/14 10:03:47;;;;;;;9.48;4.00;;;;;;;24.30;50.29;102396.72;5032224;28;20025;-73
2023/09/14 10:06:16;;;;;;;6.40;3.67;;;;;;;24.34;49.97;102385.06;5030934;28;20440;-74
2023/09/14 10:08:52;;;;;;;9.18;4.50;;;;;;;24.39;48.56;102383.22;5032296;28;20033;-74
2023/09/14 10:11:18;;;;;;;7.65;4.28;;;;;;;24.41;48.16;102380.50;5031548;28;20080;-72
2023/09/14 10:13:53;;;;;;;8.35;4.00;;;;;;;23.88;49.26;102376.16;5032196;28;20026;-77
2023/09/14 10:16:25;;;;;;;9.80;4.90;;;;;;;24.49;47.46;102375.91;5031330;28;20030;-73
2023/09/14 10:19:01;;;;;;;7.68;4.85;;;;;;;24.67;46.35;102378.19;5031415;28;20030;-73
2023/09/14 10:21:27;;;;;;;6.57;4.40;;;;;;;24.73;46.20;102378.03;5030891;28;20156;-73
2023/09/14 10:23:53;;;;;;;8.77;4.70;;;;;;;24.87;45.89;102383.97;5032122;28;20441;-71
2023/09/14 10:26:19;;;;;;;10.40;5.20;;;;;;;25.08;45.52;102381.75;5031403;28;20026;-72
2023/09/14 10:28:46;;;;;;;11.60;5.47;;;;;;;25.20;43.33;102373.44;5032718;28;20491;-72
2023/09/14 10:31:13;;;;;;;8.45;5.00;;;;;;;25.21;43.00;102373.41;5031781;28;20041;-72
2023/09/14 10:33:45;;;;;;;11.77;5.30;;;;;;;24.48;43.71;102368.81;5036230;28;20398;-72
2023/09/14 10:36:18;;;;;;;7.93;4.80;;;;;;;24.46;44.69;102373.28;5034389;28;20037;-71
2023/09/14 10:38:47;;;;;;;8.38;4.40;;;;;;;24.62;45.13;102369.41;5031205;28;20422;-74
2023/09/14 10:41:13;;;;;;;7.43;4.25;;;;;;;24.85;45.42;102368.88;5030539;28;20045;-74
2023/09/14 10:43:39;;;;;;;8.50;4.30;;;;;;;25.01;44.07;102365.88;5031496;28;20560;-73
2023/09/14 10:46:10;;;;;;;8.27;3.90;;;;;;;24.76;44.97;102361.09;5031239;28;20029;-73
2023/09/14 10:48:37;;;;;;;9.85;4.38;;;;;;;25.03;43.71;102361.38;5031162;28;20065;-73
2023/09/14 10:51:09;;;;;;;6.22;3.38;;;;;;;25.03;44.27;102355.16;5031051;28;20076;-73
2023/09/14 10:53:35;;;;;;;7.28;3.55;;;;;;;25.34;43.12;102360.66;5031097;28;20033;-74
2023/09/14 10:56:20;;;;;;;7.38;4.38;;;;;;;24.94;41.83;102360.72;5029988;28;20576;-73
2023/09/14 10:58:50;;;;;;;6.38;3.95;;;;;;;25.10;42.49;102356.78;5030567;28;20041;-73
2023/09/14 11:01:23;;;;;;;7.75;4.40;;;;;;;24.84;45.47;102361.78;5029934;28;20491;-71
2023/09/14 11:04:17;;;;;;;8.98;4.60;;;;;;;24.81;42.60;102359.22;5031145;28;20033;-73
2023/09/14 11:06:59;;;;;;;8.43;4.70;;;;;;;24.88;43.04;102359.03;5030801;28;20136;-72
2023/09/14 11:09:24;;;;;;;7.72;4.32;;;;;;;24.76;43.94;102354.00;5030365;28;20552;-71
2023/09/14 11:11:56;;;;;;;8.32;4.63;;;;;;;24.33;43.14;102350.47;5029082;28;20041;-71
2023/09/14 11:14:28;;;;;;;7.70;4.30;;;;;;;24.41;41.92;102349.38;5029962;28;20065;-73
2023/09/14 11:17:06;;;;;;;6.85;4.00;;;;;;;24.84;41.62;102352.00;5030764;28;20026;-73
2023/09/14 11:19:37;;;;;;;7.15;4.22;;;;;;;24.66;41.72;102344.41;5029838;28;20033;-74
2023/09/14 11:22:13;;;;;;;10.13;4.28;;;;;;;24.72;43.10;102343.41;5030657;28;20026;-74
2023/09/14 11:24:45;;;;;;;7.43;4.80;;;;;;;24.64;43.03;102340.91;5030543;28;20034;-73
2023/09/14 11:27:19;;;;;;;7.90;4.60;;;;;;;23.91;43.66;102334.34;5029963;28;20041;-72
2023/09/14 11:29:48;;;;;;;9.02;5.18;;;;;;;23.87;43.30;102338.00;5030644;28;20407;-72
2023/09/14 11:32:22;;;;;;;9.05;5.20;;;;;;;24.03;39.59;102338.59;5030242;28;20065;-74